createdAt,value
2019-03-23T00:00:54.616Z,6.40
2019-03-23T00:03:36.440Z,6.40
2019-03-23T00:06:18.501Z,6.30
2019-03-23T00:09:00.521Z,6.40
2019-03-23T00:11:42.378Z,6.40
2019-03-23T00:14:24.188Z,6.40
2019-03-23T00:17:06.282Z,6.40
2019-03-23T00:19:48.368Z,6.40
2019-03-23T00:22:30.455Z,6.40
2019-03-23T00:25:12.439Z,6.40
2019-03-23T00:27:54.470Z,6.40
2019-03-23T00:30:36.241Z,6.40
2019-03-23T00:33:18.474Z,6.40
2019-03-23T00:36:01.085Z,6.40
2019-03-23T00:38:43.251Z,6.30
2019-03-23T00:41:25.627Z,6.30
2019-03-23T00:44:07.904Z,6.40
2019-03-23T00:46:50.339Z,6.40
2019-03-23T00:49:32.586Z,6.30
2019-03-23T00:52:14.730Z,6.30
2019-03-23T00:54:57.286Z,6.30
2019-03-23T00:57:39.907Z,6.30
2019-03-23T01:00:22.518Z,6.30
2019-03-23T01:03:04.982Z,6.30
2019-03-23T01:05:47.461Z,6.20
2019-03-23T01:08:29.746Z,6.20
2019-03-23T01:11:11.656Z,6.20
2019-03-23T01:13:54.201Z,6.10
2019-03-23T01:16:36.567Z,6.10
2019-03-23T01:19:18.498Z,6.00
2019-03-23T01:22:00.587Z,6.00
2019-03-23T01:24:43.737Z,5.90
2019-03-23T01:27:25.746Z,5.90
2019-03-23T01:30:08.253Z,5.90
2019-03-23T01:32:50.747Z,5.90
2019-03-23T01:35:32.517Z,5.80
2019-03-23T01:38:14.571Z,5.90
2019-03-23T01:40:56.704Z,5.80
2019-03-23T01:43:39.084Z,5.80
2019-03-23T01:46:21.087Z,5.80
2019-03-23T01:49:03.564Z,5.80
2019-03-23T01:51:45.504Z,5.80
2019-03-23T01:54:27.387Z,5.80
2019-03-23T01:57:09.656Z,5.80
2019-03-23T01:59:51.664Z,5.80
2019-03-23T02:02:34.047Z,5.80
2019-03-23T02:05:16.478Z,5.80
2019-03-23T02:07:58.572Z,5.80
2019-03-23T02:10:41.950Z,5.80
2019-03-23T02:13:23.904Z,5.70
2019-03-23T02:16:05.744Z,5.70
2019-03-23T02:18:48.178Z,5.60
2019-03-23T02:21:30.407Z,5.50
2019-03-23T02:24:11.363Z,5.50
2019-03-23T02:30:31.254Z,5.60
2019-03-23T02:40:26.387Z,5.70
2019-03-23T02:43:35.712Z,5.70
2019-03-23T02:46:45.009Z,5.60
2019-03-23T02:53:10.389Z,5.60
2019-03-23T02:56:19.663Z,5.60
2019-03-23T02:59:29.040Z,5.70
2019-03-23T03:02:18.919Z,5.70
2019-03-23T03:05:28.201Z,5.80
2019-03-23T03:11:46.357Z,5.70
2019-03-23T03:14:36.215Z,5.70
2019-03-23T03:17:45.579Z,5.60
2019-03-23T03:20:54.920Z,5.70
2019-03-23T03:23:56.137Z,5.70
2019-03-23T03:26:38.178Z,5.70
2019-03-23T03:29:19.985Z,5.60
2019-03-23T03:32:02.115Z,5.60
2019-03-23T03:34:44.698Z,5.60
2019-03-23T03:37:26.451Z,5.60
2019-03-23T03:40:08.326Z,5.60
2019-03-23T03:42:50.836Z,5.50
2019-03-23T03:45:33.006Z,5.50
2019-03-23T03:48:14.955Z,5.50
2019-03-23T03:50:56.717Z,5.40
2019-03-23T03:53:38.990Z,5.40
2019-03-23T03:56:20.998Z,5.50
2019-03-23T03:59:03.093Z,5.50
2019-03-23T04:01:45.516Z,5.50
2019-03-23T04:04:27.759Z,5.50
2019-03-23T04:07:09.779Z,5.50
2019-03-23T04:09:52.330Z,5.50
2019-03-23T04:12:34.672Z,5.40
2019-03-23T04:15:17.110Z,5.40
2019-03-23T04:17:59.721Z,5.30
2019-03-23T04:20:41.785Z,5.40
2019-03-23T04:23:23.824Z,5.30
2019-03-23T04:26:06.181Z,5.30
2019-03-23T04:28:48.416Z,5.30
2019-03-23T04:31:30.539Z,5.20
2019-03-23T04:34:12.638Z,5.10
2019-03-23T04:36:55.233Z,5.00
2019-03-23T04:39:36.226Z,5.10
2019-03-23T04:42:26.446Z,5.10
2019-03-23T04:45:17.131Z,5.00
2019-03-23T04:47:48.246Z,5.10
2019-03-23T04:50:19.338Z,5.10
2019-03-23T04:52:50.430Z,5.20
2019-03-23T04:55:21.506Z,5.10
2019-03-23T04:57:52.619Z,5.00
2019-03-23T05:00:23.647Z,5.10
2019-03-23T05:02:54.699Z,5.00
2019-03-23T05:05:25.869Z,5.00
2019-03-23T05:07:57.325Z,5.10
2019-03-23T05:10:28.358Z,5.00
2019-03-23T05:12:59.393Z,5.00
2019-03-23T05:15:30.393Z,5.00
2019-03-23T05:18:01.469Z,5.00
2019-03-23T05:20:33.015Z,5.00
2019-03-23T05:23:04.167Z,5.00
2019-03-23T05:25:35.249Z,5.00
2019-03-23T05:28:06.306Z,5.00
2019-03-23T05:30:37.727Z,5.00
2019-03-23T05:33:08.784Z,5.00
2019-03-23T05:35:39.901Z,5.10
2019-03-23T05:38:10.967Z,5.10
2019-03-23T05:40:41.999Z,5.00
2019-03-23T05:43:13.059Z,5.00
2019-03-23T05:45:44.253Z,5.10
2019-03-23T05:48:15.568Z,5.10
2019-03-23T05:50:46.944Z,5.20
2019-03-23T05:53:18.900Z,5.20
2019-03-23T05:55:49.958Z,5.20
2019-03-23T05:58:20.991Z,5.20
2019-03-23T06:00:52.015Z,5.20
2019-03-23T06:03:23.129Z,5.20
2019-03-23T06:05:54.204Z,5.10
2019-03-23T06:08:25.246Z,5.10
2019-03-23T06:10:56.326Z,5.10
2019-03-23T06:13:27.371Z,5.10
2019-03-23T06:15:58.709Z,5.00
2019-03-23T06:18:29.817Z,5.00
2019-03-23T06:21:00.843Z,5.00
2019-03-23T06:23:31.904Z,5.10
2019-03-23T06:26:02.969Z,5.10
2019-03-23T06:28:34.266Z,5.10
2019-03-23T06:31:05.295Z,5.10
2019-03-23T06:33:36.498Z,5.20
2019-03-23T06:36:07.555Z,5.20
2019-03-23T06:39:05.096Z,5.30
2019-03-23T06:42:08.462Z,5.30
2019-03-23T06:51:49.415Z,5.40
2019-03-23T07:01:23.685Z,5.40
2019-03-23T07:04:32.958Z,5.50
2019-03-23T07:10:56.917Z,5.50
2019-03-23T07:23:31.109Z,5.80
2019-03-23T07:26:40.442Z,5.90
2019-03-23T07:35:51.816Z,6.20
2019-03-23T07:38:33.710Z,6.20
2019-03-23T07:41:16.575Z,6.30
2019-03-23T07:43:58.431Z,6.40
2019-03-23T07:46:40.563Z,6.40
2019-03-23T07:49:22.717Z,6.40
2019-03-23T07:52:04.978Z,6.50
2019-03-23T07:54:46.829Z,6.50
2019-03-23T07:57:28.810Z,6.60
2019-03-23T08:00:10.833Z,6.60
2019-03-23T08:02:52.891Z,6.70
2019-03-23T08:05:35.366Z,6.70
2019-03-23T08:08:17.881Z,6.70
2019-03-23T08:11:00.312Z,6.80
2019-03-23T08:13:42.224Z,6.80
2019-03-23T08:16:24.242Z,6.90
2019-03-23T08:19:06.181Z,6.90
2019-03-23T08:21:48.397Z,7.00
2019-03-23T08:24:30.288Z,7.00
2019-03-23T08:27:12.469Z,7.10
2019-03-23T08:29:54.326Z,7.10
2019-03-23T08:32:36.583Z,7.20
2019-03-23T08:35:18.309Z,7.20
2019-03-23T08:38:00.300Z,7.30
2019-03-23T08:40:42.468Z,7.30
2019-03-23T08:43:25.036Z,7.30
2019-03-23T08:46:07.127Z,7.40
2019-03-23T08:48:49.319Z,7.40
2019-03-23T08:51:32.717Z,7.50
2019-03-23T08:54:15.043Z,7.50
2019-03-23T08:56:57.887Z,7.60
2019-03-23T08:59:40.984Z,7.60
2019-03-23T09:02:24.298Z,7.70
2019-03-23T09:05:06.818Z,7.70
2019-03-23T09:07:49.441Z,7.70
2019-03-23T09:10:31.481Z,7.70
2019-03-23T09:13:15.152Z,7.70
2019-03-23T09:15:58.023Z,7.80
2019-03-23T09:18:40.221Z,7.80
2019-03-23T09:21:22.956Z,7.80
2019-03-23T09:24:05.487Z,7.80
2019-03-23T09:26:47.831Z,7.90
2019-03-23T09:29:30.298Z,7.90
2019-03-23T09:32:12.500Z,7.90
2019-03-23T09:34:54.540Z,7.90
2019-03-23T09:37:38.142Z,7.90
2019-03-23T09:40:20.274Z,7.90
2019-03-23T09:43:03.673Z,7.90
2019-03-23T09:45:45.969Z,8.00
2019-03-23T09:48:27.879Z,8.00
2019-03-23T09:51:10.114Z,8.00
2019-03-23T09:53:52.212Z,8.00
2019-03-23T09:56:34.192Z,8.10
2019-03-23T09:59:16.065Z,8.10
2019-03-23T10:01:58.620Z,8.10
2019-03-23T10:04:40.399Z,8.20
2019-03-23T10:07:22.456Z,8.10
2019-03-23T10:10:04.759Z,8.20
2019-03-23T10:12:47.136Z,8.20
2019-03-23T10:15:29.283Z,8.20
2019-03-23T10:18:11.730Z,8.20
2019-03-23T10:20:53.586Z,8.20
2019-03-23T10:23:37.205Z,8.20
2019-03-23T10:26:19.183Z,8.20
2019-03-23T10:29:01.849Z,8.20
2019-03-23T10:31:43.983Z,8.20
2019-03-23T10:34:26.256Z,8.20
2019-03-23T10:37:08.306Z,8.30
2019-03-23T10:39:50.445Z,8.30
2019-03-23T10:42:32.718Z,8.30
2019-03-23T10:45:15.069Z,8.30
2019-03-23T10:50:39.488Z,8.30
2019-03-23T10:53:23.278Z,8.30
2019-03-23T10:56:06.567Z,8.40
2019-03-23T10:58:48.989Z,8.40
2019-03-23T11:01:31.357Z,8.40
2019-03-23T11:04:13.738Z,8.40
2019-03-23T11:06:56.039Z,8.40
2019-03-23T11:09:38.325Z,8.40
2019-03-23T11:12:20.368Z,8.40
2019-03-23T11:15:02.469Z,8.40
2019-03-23T11:17:44.837Z,8.50
2019-03-23T11:20:26.903Z,8.50
2019-03-23T11:23:09.020Z,8.50
2019-03-23T11:25:51.503Z,8.50
2019-03-23T11:28:33.771Z,8.50
2019-03-23T11:31:16.039Z,8.50
2019-03-23T11:33:59.088Z,8.60
2019-03-23T11:36:41.144Z,8.60
2019-03-23T11:39:23.252Z,8.60
2019-03-23T11:42:05.563Z,8.60
2019-03-23T11:44:48.430Z,8.60
2019-03-23T11:47:30.588Z,8.60
2019-03-23T11:50:12.931Z,8.60
2019-03-23T11:55:45.121Z,8.60
2019-03-23T11:58:27.444Z,8.70
2019-03-23T12:01:09.764Z,8.70
2019-03-23T12:03:52.983Z,8.70
2019-03-23T12:06:37.919Z,8.70
2019-03-23T12:09:19.825Z,8.70
2019-03-23T12:12:01.836Z,8.70
2019-03-23T12:14:44.140Z,8.70
2019-03-23T12:17:25.906Z,8.70
2019-03-23T12:20:07.922Z,8.70
2019-03-23T12:22:50.252Z,8.70
2019-03-23T12:25:32.105Z,8.80
2019-03-23T12:28:14.619Z,8.70
2019-03-23T12:30:56.609Z,8.70
2019-03-23T12:33:38.780Z,8.80
2019-03-23T12:36:20.769Z,8.80
2019-03-23T12:39:03.177Z,8.80
2019-03-23T12:41:45.149Z,8.80
2019-03-23T12:44:27.321Z,8.80
2019-03-23T12:47:09.325Z,8.80
2019-03-23T12:49:51.527Z,8.80
2019-03-23T12:52:34.451Z,8.80
2019-03-23T12:55:16.874Z,8.80
2019-03-23T12:57:59.433Z,8.90
2019-03-23T13:00:41.456Z,8.90
2019-03-23T13:03:23.354Z,8.90
2019-03-23T13:06:06.557Z,8.90
2019-03-23T13:08:49.343Z,8.90
2019-03-23T13:11:35.444Z,8.90
2019-03-23T13:14:15.701Z,8.90
2019-03-23T13:16:57.886Z,8.90
2019-03-23T13:19:40.532Z,8.90
2019-03-23T13:22:21.810Z,8.90
2019-03-23T13:28:27.561Z,8.90
2019-03-23T13:31:17.271Z,8.90
2019-03-23T13:34:26.686Z,8.90
2019-03-23T13:37:08.982Z,9.00
2019-03-23T13:39:51.406Z,9.00
2019-03-23T13:42:34.208Z,9.00
2019-03-23T13:45:16.423Z,9.00
2019-03-23T13:47:58.390Z,9.00
2019-03-23T13:50:40.330Z,9.00
2019-03-23T13:53:22.433Z,9.00
2019-03-23T13:56:04.696Z,9.10
2019-03-23T13:58:46.847Z,9.10
2019-03-23T14:01:28.888Z,9.10
2019-03-23T14:04:10.871Z,9.10
2019-03-23T14:06:53.047Z,9.10
2019-03-23T14:09:35.109Z,9.10
2019-03-23T14:12:17.423Z,9.20
2019-03-23T14:14:59.310Z,9.20
2019-03-23T14:17:41.508Z,9.20
2019-03-23T14:20:24.035Z,9.30
2019-03-23T14:23:05.822Z,9.20
2019-03-23T14:25:47.819Z,9.20
2019-03-23T14:28:30.017Z,9.30
2019-03-23T14:31:12.687Z,9.40
2019-03-23T14:33:54.777Z,9.40
2019-03-23T14:36:36.541Z,9.40
2019-03-23T14:39:18.673Z,9.40
2019-03-23T14:42:04.762Z,9.40
2019-03-23T14:44:44.601Z,9.40
2019-03-23T14:47:27.391Z,9.40
2019-03-23T14:50:09.964Z,9.40
2019-03-23T14:52:51.923Z,9.30
2019-03-23T14:55:34.045Z,9.40
2019-03-23T14:58:16.653Z,9.40
2019-03-23T15:00:59.013Z,9.40
2019-03-23T15:03:40.751Z,9.40
2019-03-23T15:06:23.163Z,9.40
2019-03-23T15:09:05.449Z,9.50
2019-03-23T15:11:47.695Z,9.40
2019-03-23T15:14:29.797Z,9.40
2019-03-23T15:17:12.284Z,9.50
2019-03-23T15:19:54.434Z,9.50
2019-03-23T15:22:36.621Z,9.50
2019-03-23T15:25:18.602Z,9.50
2019-03-23T15:28:00.341Z,9.50
2019-03-23T15:30:42.372Z,9.50
2019-03-23T15:33:24.167Z,9.50
2019-03-23T15:36:06.324Z,9.60
2019-03-23T15:38:48.862Z,9.60
2019-03-23T15:41:30.936Z,9.60
2019-03-23T15:44:12.805Z,9.60
2019-03-23T15:46:54.738Z,9.60
2019-03-23T15:49:36.593Z,9.60
2019-03-23T15:52:18.845Z,9.60
2019-03-23T15:55:03.163Z,9.60
2019-03-23T15:57:45.398Z,9.60
2019-03-23T16:00:27.552Z,9.60
2019-03-23T16:03:09.526Z,9.60
2019-03-23T16:05:51.505Z,9.60
2019-03-23T16:08:33.458Z,9.70
2019-03-23T16:11:15.269Z,9.80
2019-03-23T16:13:57.509Z,9.80
2019-03-23T16:16:39.353Z,9.70
2019-03-23T16:19:21.173Z,9.80
2019-03-23T16:22:03.583Z,9.70
2019-03-23T16:24:46.063Z,9.70
2019-03-23T16:27:28.096Z,9.70
2019-03-23T16:30:10.313Z,9.70
2019-03-23T16:32:52.922Z,9.70
2019-03-23T16:35:35.295Z,9.70
2019-03-23T16:38:17.372Z,9.70
2019-03-23T16:40:59.141Z,9.70
2019-03-23T16:43:41.088Z,9.70
2019-03-23T16:46:23.375Z,9.70
2019-03-23T16:49:05.367Z,9.70
2019-03-23T16:51:47.366Z,9.60
2019-03-23T16:54:29.699Z,9.60
2019-03-23T17:00:36.920Z,9.60
2019-03-23T17:03:18.971Z,9.60
2019-03-23T17:06:01.520Z,9.60
2019-03-23T17:08:43.881Z,9.60
2019-03-23T17:11:26.347Z,9.60
2019-03-23T17:14:08.345Z,9.50
2019-03-23T17:16:50.783Z,9.50
2019-03-23T17:19:33.371Z,9.60
2019-03-23T17:22:15.519Z,9.50
2019-03-23T17:24:57.855Z,9.60
2019-03-23T17:27:39.770Z,9.60
2019-03-23T17:30:21.980Z,9.60
2019-03-23T17:33:04.409Z,9.60
2019-03-23T17:35:46.375Z,9.50
2019-03-23T17:38:28.894Z,9.50
2019-03-23T17:41:11.040Z,9.50
2019-03-23T17:43:53.237Z,9.50
2019-03-23T17:46:35.254Z,9.50
2019-03-23T17:49:17.061Z,9.60
2019-03-23T17:51:59.333Z,9.50
2019-03-23T17:54:41.630Z,9.50
2019-03-23T17:57:23.971Z,9.50
2019-03-23T18:00:06.219Z,9.50
2019-03-23T18:02:48.175Z,9.50
2019-03-23T18:05:30.614Z,9.40
2019-03-23T18:08:13.737Z,9.40
2019-03-23T18:10:56.052Z,9.40
2019-03-23T18:13:38.573Z,9.40
2019-03-23T18:16:20.739Z,9.40
2019-03-23T18:19:03.370Z,9.40
2019-03-23T18:21:47.832Z,9.40
2019-03-23T18:24:29.516Z,9.30
2019-03-23T18:27:11.294Z,9.30
2019-03-23T18:29:53.378Z,9.20
2019-03-23T18:32:35.665Z,9.20
2019-03-23T18:35:18.037Z,9.20
2019-03-23T18:38:00.155Z,9.10
2019-03-23T18:40:42.090Z,9.10
2019-03-23T18:43:27.692Z,9.10
2019-03-23T18:46:08.948Z,9.10
2019-03-23T18:48:51.175Z,9.00
2019-03-23T18:51:34.032Z,9.00
2019-03-23T18:54:16.083Z,9.00
2019-03-23T18:56:59.463Z,9.00
2019-03-23T18:59:42.563Z,9.00
2019-03-23T19:02:24.387Z,9.00
2019-03-23T19:05:06.264Z,9.00
2019-03-23T19:07:48.490Z,9.00
2019-03-23T19:10:32.413Z,9.10
2019-03-23T19:16:00.954Z,9.10
2019-03-23T19:18:42.823Z,9.10
2019-03-23T19:21:25.410Z,9.00
2019-03-23T19:24:07.294Z,9.00
2019-03-23T19:26:49.473Z,9.10
2019-03-23T19:29:31.431Z,9.10
2019-03-23T19:32:13.537Z,9.10
2019-03-23T19:34:55.357Z,9.10
2019-03-23T19:37:39.019Z,9.10
2019-03-23T19:40:21.671Z,9.10
2019-03-23T19:43:03.648Z,9.10
2019-03-23T19:45:45.786Z,9.10
2019-03-23T19:48:27.826Z,9.20
2019-03-23T19:51:09.549Z,9.10
2019-03-23T19:53:51.707Z,9.10
2019-03-23T19:56:34.328Z,9.10
2019-03-23T19:59:16.285Z,9.10
2019-03-23T20:01:58.857Z,9.10
2019-03-23T20:04:41.045Z,9.00
2019-03-23T20:07:32.568Z,9.00
2019-03-23T20:10:07.141Z,8.90
2019-03-23T20:12:48.819Z,8.90
2019-03-23T20:15:31.124Z,8.90
2019-03-23T20:18:13.647Z,8.90
2019-03-23T20:20:55.817Z,8.90
2019-03-23T20:23:38.162Z,8.80
2019-03-23T20:26:20.241Z,8.80
2019-03-23T20:29:03.018Z,8.70
2019-03-23T20:31:45.610Z,8.70
2019-03-23T20:34:28.508Z,8.70
2019-03-23T20:37:10.503Z,8.70
2019-03-23T20:39:52.811Z,8.60
2019-03-23T20:42:35.190Z,8.60
2019-03-23T20:45:17.522Z,8.60
2019-03-23T20:47:59.560Z,8.60
2019-03-23T20:50:41.577Z,8.60
2019-03-23T20:53:23.602Z,8.50
2019-03-23T20:56:06.353Z,8.50
2019-03-23T20:58:47.987Z,8.50
2019-03-23T21:01:30.061Z,8.40
2019-03-23T21:04:11.821Z,8.40
2019-03-23T21:06:54.245Z,8.40
2019-03-23T21:09:36.427Z,8.40
2019-03-23T21:12:18.686Z,8.40
2019-03-23T21:15:02.707Z,8.40
2019-03-23T21:17:51.252Z,8.30
2019-03-23T21:20:29.393Z,8.30
2019-03-23T21:23:11.601Z,8.30
2019-03-23T21:25:53.892Z,8.30
2019-03-23T21:28:35.698Z,8.30
2019-03-23T21:31:17.361Z,8.30
2019-03-23T21:33:59.968Z,8.20
2019-03-23T21:36:41.826Z,8.20
2019-03-23T21:39:23.910Z,8.20
2019-03-23T21:42:06.201Z,8.20
2019-03-23T21:44:48.260Z,8.20
2019-03-23T21:47:30.084Z,8.20
2019-03-23T21:50:12.413Z,8.10
2019-03-23T21:52:54.640Z,8.10
2019-03-23T21:55:36.783Z,8.10
2019-03-23T21:58:19.279Z,8.10
2019-03-23T22:01:01.446Z,8.10
2019-03-23T22:03:43.556Z,8.00
2019-03-23T22:06:26.127Z,8.00
2019-03-23T22:09:08.227Z,8.00
2019-03-23T22:11:50.809Z,7.90
2019-03-23T22:14:41.353Z,7.80
2019-03-23T22:17:16.591Z,7.80
2019-03-23T22:19:58.411Z,7.80
2019-03-23T22:22:40.387Z,7.70
2019-03-23T22:25:23.081Z,7.70
2019-03-23T22:28:04.853Z,7.70
2019-03-23T22:30:46.855Z,7.70
2019-03-23T22:33:29.481Z,7.70
2019-03-23T22:36:11.544Z,7.70
2019-03-23T22:38:53.565Z,7.70
2019-03-23T22:41:36.161Z,7.70
2019-03-23T22:44:18.231Z,7.70
2019-03-23T22:47:00.178Z,7.70
2019-03-23T22:49:42.759Z,7.70
2019-03-23T22:52:25.058Z,7.70
2019-03-23T22:55:07.414Z,7.70
2019-03-23T22:57:49.478Z,7.70
2019-03-23T23:00:50.727Z,7.70
2019-03-23T23:03:32.828Z,7.70
2019-03-23T23:06:14.643Z,7.70
2019-03-23T23:08:56.746Z,7.70
2019-03-23T23:11:38.879Z,7.70
2019-03-23T23:14:21.051Z,7.60
2019-03-23T23:17:03.216Z,7.60
2019-03-23T23:19:45.277Z,7.60
2019-03-23T23:22:27.385Z,7.60
2019-03-23T23:25:09.747Z,7.50
2019-03-23T23:27:51.883Z,7.40
2019-03-23T23:30:33.897Z,7.40
2019-03-23T23:33:16.131Z,7.40
2019-03-23T23:35:58.321Z,7.40
2019-03-23T23:38:40.476Z,7.40
2019-03-23T23:41:22.497Z,7.40
2019-03-23T23:44:04.391Z,7.30
2019-03-23T23:46:46.781Z,7.30
2019-03-23T23:49:28.491Z,7.30
2019-03-23T23:52:10.466Z,7.30
2019-03-23T23:54:52.207Z,7.30
2019-03-23T23:57:34.230Z,7.20
